sensor_id;sensor_type;location;lat;lon;timestamp;pressure;altitude;pressure_sealevel;temperature;humidity
56070;BME280;41944;52.078;-0.058;2023-04-27T00:02:00;101647.13;;;9.03;73.05
56070;BME280;41944;52.078;-0.058;2023-04-27T00:04:26;101652.63;;;8.92;74.04
56070;BME280;41944;52.078;-0.058;2023-04-27T00:06:53;101652.52;;;8.84;74.04
56070;BME280;41944;52.078;-0.058;2023-04-27T00:09:20;101650.79;;;8.85;74.22
56070;BME280;41944;52.078;-0.058;2023-04-27T00:11:47;101645.93;;;9.06;73.42
56070;BME280;41944;52.078;-0.058;2023-04-27T00:14:14;101648.89;;;9.19;72.70
56070;BME280;41944;52.078;-0.058;2023-04-27T00:16:42;101646.96;;;9.24;72.40
56070;BME280;41944;52.078;-0.058;2023-04-27T00:19:09;101648.93;;;9.23;72.43
56070;BME280;41944;52.078;-0.058;2023-04-27T00:21:36;101645.09;;;9.11;73.01
56070;BME280;41944;52.078;-0.058;2023-04-27T00:24:03;101642.42;;;9.16;72.89
56070;BME280;41944;52.078;-0.058;2023-04-27T00:26:30;101638.34;;;9.07;73.16
56070;BME280;41944;52.078;-0.058;2023-04-27T00:28:57;101641.55;;;8.81;74.25
56070;BME280;41944;52.078;-0.058;2023-04-27T00:31:25;101631.13;;;8.99;73.37
56070;BME280;41944;52.078;-0.058;2023-04-27T00:33:51;101636.19;;;8.81;74.26
56070;BME280;41944;52.078;-0.058;2023-04-27T00:36:18;101632.04;;;8.97;73.34
56070;BME280;41944;52.078;-0.058;2023-04-27T00:38:45;101629.73;;;8.89;73.66
56070;BME280;41944;52.078;-0.058;2023-04-27T00:41:12;101630.49;;;8.60;74.98
56070;BME280;41944;52.078;-0.058;2023-04-27T00:43:43;101630.86;;;8.60;75.57
56070;BME280;41944;52.078;-0.058;2023-04-27T00:46:10;101628.65;;;8.62;75.22
56070;BME280;41944;52.078;-0.058;2023-04-27T00:48:39;101628.38;;;8.52;75.80
56070;BME280;41944;52.078;-0.058;2023-04-27T00:51:06;101622.99;;;8.65;75.45
56070;BME280;41944;52.078;-0.058;2023-04-27T00:53:33;101623.02;;;8.59;76.08
56070;BME280;41944;52.078;-0.058;2023-04-27T00:56:02;101622.17;;;8.56;76.51
56070;BME280;41944;52.078;-0.058;2023-04-27T00:58:28;101613.07;;;8.68;76.24
56070;BME280;41944;52.078;-0.058;2023-04-27T01:00:56;101610.34;;;8.76;75.93
56070;BME280;41944;52.078;-0.058;2023-04-27T01:03:24;101603.92;;;8.80;76.04
56070;BME280;41944;52.078;-0.058;2023-04-27T01:05:51;101604.02;;;8.76;76.27
56070;BME280;41944;52.078;-0.058;2023-04-27T01:08:18;101595.22;;;8.80;76.39
56070;BME280;41944;52.078;-0.058;2023-04-27T01:10:45;101592.29;;;8.82;76.35
56070;BME280;41944;52.078;-0.058;2023-04-27T01:13:11;101591.43;;;8.77;76.98
56070;BME280;41944;52.078;-0.058;2023-04-27T01:15:40;101588.39;;;8.92;76.72
56070;BME280;41944;52.078;-0.058;2023-04-27T01:18:07;101585.06;;;9.22;75.11
56070;BME280;41944;52.078;-0.058;2023-04-27T01:20:34;101582.34;;;9.24;74.84
56070;BME280;41944;52.078;-0.058;2023-04-27T01:23:01;101581.91;;;9.09;75.66
56070;BME280;41944;52.078;-0.058;2023-04-27T01:25:27;101582.73;;;9.17;75.47
56070;BME280;41944;52.078;-0.058;2023-04-27T01:27:54;101583.26;;;9.21;75.54
56070;BME280;41944;52.078;-0.058;2023-04-27T01:30:21;101576.84;;;9.22;75.59
56070;BME280;41944;52.078;-0.058;2023-04-27T01:32:48;101570.40;;;9.30;75.31
56070;BME280;41944;52.078;-0.058;2023-04-27T01:35:15;101570.74;;;9.21;75.69
56070;BME280;41944;52.078;-0.058;2023-04-27T01:37:42;101571.54;;;9.13;76.26
56070;BME280;41944;52.078;-0.058;2023-04-27T01:40:11;101570.74;;;9.12;76.56
56070;BME280;41944;52.078;-0.058;2023-04-27T01:42:38;101567.90;;;9.38;75.80
56070;BME280;41944;52.078;-0.058;2023-04-27T01:45:06;101571.22;;;9.56;74.87
56070;BME280;41944;52.078;-0.058;2023-04-27T01:47:33;101570.62;;;9.42;75.28
56070;BME280;41944;52.078;-0.058;2023-04-27T01:50:00;101570.49;;;9.59;74.82
56070;BME280;41944;52.078;-0.058;2023-04-27T01:52:26;101567.46;;;9.50;74.84
56070;BME280;41944;52.078;-0.058;2023-04-27T01:54:53;101564.18;;;9.54;75.25
56070;BME280;41944;52.078;-0.058;2023-04-27T01:57:20;101571.02;;;9.77;74.09
56070;BME280;41944;52.078;-0.058;2023-04-27T01:59:48;101575.73;;;9.57;74.86
56070;BME280;41944;52.078;-0.058;2023-04-27T02:02:15;101577.93;;;9.43;75.23
56070;BME280;41944;52.078;-0.058;2023-04-27T02:04:42;101575.55;;;9.53;75.24
56070;BME280;41944;52.078;-0.058;2023-04-27T02:07:09;101578.04;;;9.43;75.74
56070;BME280;41944;52.078;-0.058;2023-04-27T02:09:36;101578.25;;;9.56;75.44
56070;BME280;41944;52.078;-0.058;2023-04-27T02:12:04;101582.01;;;9.59;75.16
56070;BME280;41944;52.078;-0.058;2023-04-27T02:14:32;101581.52;;;9.21;76.86
56070;BME280;41944;52.078;-0.058;2023-04-27T02:16:59;101576.83;;;9.10;77.58
56070;BME280;41944;52.078;-0.058;2023-04-27T02:19:26;101572.78;;;9.16;77.75
56070;BME280;41944;52.078;-0.058;2023-04-27T02:21:53;101576.45;;;9.25;77.07
56070;BME280;41944;52.078;-0.058;2023-04-27T02:24:20;101578.22;;;9.18;77.42
56070;BME280;41944;52.078;-0.058;2023-04-27T02:26:48;101581.27;;;9.13;77.99
56070;BME280;41944;52.078;-0.058;2023-04-27T02:29:14;101582.78;;;9.08;78.21
56070;BME280;41944;52.078;-0.058;2023-04-27T02:31:42;101582.55;;;9.24;77.86
56070;BME280;41944;52.078;-0.058;2023-04-27T02:34:09;101585.22;;;8.97;79.03
56070;BME280;41944;52.078;-0.058;2023-04-27T02:36:36;101587.98;;;9.03;79.29
56070;BME280;41944;52.078;-0.058;2023-04-27T02:39:03;101591.29;;;8.83;79.78
56070;BME280;41944;52.078;-0.058;2023-04-27T02:41:31;101594.42;;;8.61;81.13
56070;BME280;41944;52.078;-0.058;2023-04-27T02:43:58;101597.15;;;8.51;81.79
56070;BME280;41944;52.078;-0.058;2023-04-27T02:46:25;101600.53;;;8.49;82.53
56070;BME280;41944;52.078;-0.058;2023-04-27T02:48:51;101598.19;;;8.45;82.65
56070;BME280;41944;52.078;-0.058;2023-04-27T02:51:18;101598.68;;;8.51;82.16
56070;BME280;41944;52.078;-0.058;2023-04-27T02:53:45;101597.79;;;8.49;82.59
56070;BME280;41944;52.078;-0.058;2023-04-27T02:56:12;101593.99;;;8.23;83.69
56070;BME280;41944;52.078;-0.058;2023-04-27T02:58:40;101595.62;;;8.12;84.40
56070;BME280;41944;52.078;-0.058;2023-04-27T03:01:07;101594.72;;;7.86;86.00
56070;BME280;41944;52.078;-0.058;2023-04-27T03:03:34;101597.13;;;7.87;86.16
56070;BME280;41944;52.078;-0.058;2023-04-27T03:06:01;101597.49;;;7.72;87.26
56070;BME280;41944;52.078;-0.058;2023-04-27T03:08:28;101600.45;;;7.69;87.75
56070;BME280;41944;52.078;-0.058;2023-04-27T03:10:55;101597.91;;;7.68;88.32
56070;BME280;41944;52.078;-0.058;2023-04-27T03:13:21;101601.37;;;7.86;87.36
56070;BME280;41944;52.078;-0.058;2023-04-27T03:15:48;101600.45;;;7.76;88.32
56070;BME280;41944;52.078;-0.058;2023-04-27T03:18:15;101598.39;;;8.01;87.37
56070;BME280;41944;52.078;-0.058;2023-04-27T03:20:42;101597.18;;;8.04;87.12
56070;BME280;41944;52.078;-0.058;2023-04-27T03:23:08;101598.11;;;8.09;86.85
56070;BME280;41944;52.078;-0.058;2023-04-27T03:25:36;101594.28;;;8.21;86.41
56070;BME280;41944;52.078;-0.058;2023-04-27T03:28:03;101593.21;;;8.34;86.27
56070;BME280;41944;52.078;-0.058;2023-04-27T03:30:30;101591.39;;;8.51;85.58
56070;BME280;41944;52.078;-0.058;2023-04-27T03:32:57;101590.39;;;8.47;85.29
56070;BME280;41944;52.078;-0.058;2023-04-27T03:35:24;101586.63;;;8.66;84.92
56070;BME280;41944;52.078;-0.058;2023-04-27T03:37:51;101588.03;;;8.52;85.53
56070;BME280;41944;52.078;-0.058;2023-04-27T03:40:19;101586.79;;;8.36;86.32
56070;BME280;41944;52.078;-0.058;2023-04-27T03:42:46;101583.24;;;8.31;86.86
56070;BME280;41944;52.078;-0.058;2023-04-27T03:45:12;101582.08;;;8.39;86.68
56070;BME280;41944;52.078;-0.058;2023-04-27T03:47:40;101577.51;;;8.24;87.30
56070;BME280;41944;52.078;-0.058;2023-04-27T03:50:08;101576.94;;;8.20;87.68
56070;BME280;41944;52.078;-0.058;2023-04-27T03:52:35;101575.23;;;8.20;87.82
56070;BME280;41944;52.078;-0.058;2023-04-27T03:55:03;101576.67;;;8.34;86.86
56070;BME280;41944;52.078;-0.058;2023-04-27T03:57:30;101575.77;;;8.23;87.39
56070;BME280;41944;52.078;-0.058;2023-04-27T03:59:57;101568.92;;;8.19;87.81
56070;BME280;41944;52.078;-0.058;2023-04-27T04:02:23;101567.79;;;8.31;87.38
56070;BME280;41944;52.078;-0.058;2023-04-27T04:04:51;101563.23;;;8.27;86.88
56070;BME280;41944;52.078;-0.058;2023-04-27T04:07:17;101562.55;;;8.37;86.82
56070;BME280;41944;52.078;-0.058;2023-04-27T04:09:44;101557.07;;;8.25;86.76
56070;BME280;41944;52.078;-0.058;2023-04-27T04:12:11;101553.90;;;8.02;87.68
56070;BME280;41944;52.078;-0.058;2023-04-27T04:14:38;101550.05;;;8.00;88.00
56070;BME280;41944;52.078;-0.058;2023-04-27T04:17:07;101544.97;;;7.90;88.47
56070;BME280;41944;52.078;-0.058;2023-04-27T04:19:34;101542.53;;;7.93;88.31
56070;BME280;41944;52.078;-0.058;2023-04-27T04:22:02;101541.65;;;8.15;87.54
56070;BME280;41944;52.078;-0.058;2023-04-27T04:24:29;101537.62;;;8.25;87.02
56070;BME280;41944;52.078;-0.058;2023-04-27T04:26:56;101529.18;;;8.13;86.99
56070;BME280;41944;52.078;-0.058;2023-04-27T04:29:24;101523.04;;;7.88;88.08
56070;BME280;41944;52.078;-0.058;2023-04-27T04:31:51;101520.81;;;8.15;87.11
56070;BME280;41944;52.078;-0.058;2023-04-27T04:34:18;101523.67;;;8.17;86.94
56070;BME280;41944;52.078;-0.058;2023-04-27T04:36:44;101528.55;;;8.04;87.48
56070;BME280;41944;52.078;-0.058;2023-04-27T04:39:11;101531.52;;;8.22;87.02
56070;BME280;41944;52.078;-0.058;2023-04-27T04:41:38;101529.32;;;8.34;86.23
56070;BME280;41944;52.078;-0.058;2023-04-27T04:44:06;101533.69;;;8.21;86.35
56070;BME280;41944;52.078;-0.058;2023-04-27T04:46:32;101531.04;;;8.23;86.23
56070;BME280;41944;52.078;-0.058;2023-04-27T04:49:00;101528.37;;;8.33;85.46
56070;BME280;41944;52.078;-0.058;2023-04-27T04:51:26;101525.47;;;8.21;85.91
56070;BME280;41944;52.078;-0.058;2023-04-27T04:53:53;101518.72;;;8.45;85.02
56070;BME280;41944;52.078;-0.058;2023-04-27T04:56:20;101519.25;;;8.45;84.64
56070;BME280;41944;52.078;-0.058;2023-04-27T04:58:47;101523.00;;;8.45;84.40
56070;BME280;41944;52.078;-0.058;2023-04-27T05:01:14;101523.53;;;8.44;84.79
56070;BME280;41944;52.078;-0.058;2023-04-27T05:03:42;101524.36;;;8.43;84.93
56070;BME280;41944;52.078;-0.058;2023-04-27T05:06:09;101525.97;;;8.41;84.76
56070;BME280;41944;52.078;-0.058;2023-04-27T05:08:36;101524.80;;;8.48;84.45
56070;BME280;41944;52.078;-0.058;2023-04-27T05:11:03;101529.67;;;8.36;84.93
56070;BME280;41944;52.078;-0.058;2023-04-27T05:13:30;101534.62;;;8.40;84.56
56070;BME280;41944;52.078;-0.058;2023-04-27T05:15:57;101533.69;;;8.49;84.01
56070;BME280;41944;52.078;-0.058;2023-04-27T05:18:24;101535.54;;;8.42;84.45
56070;BME280;41944;52.078;-0.058;2023-04-27T05:20:51;101539.63;;;8.57;83.58
56070;BME280;41944;52.078;-0.058;2023-04-27T05:23:18;101543.63;;;8.43;84.12
56070;BME280;41944;52.078;-0.058;2023-04-27T05:25:46;101536.73;;;8.59;83.37
56070;BME280;41944;52.078;-0.058;2023-04-27T05:28:12;101530.18;;;8.56;83.63
56070;BME280;41944;52.078;-0.058;2023-04-27T05:30:40;101527.71;;;8.58;83.71
56070;BME280;41944;52.078;-0.058;2023-04-27T05:33:08;101525.90;;;8.59;83.45
56070;BME280;41944;52.078;-0.058;2023-04-27T05:35:35;101524.14;;;8.63;83.28
56070;BME280;41944;52.078;-0.058;2023-04-27T05:38:02;101520.90;;;8.72;82.90
56070;BME280;41944;52.078;-0.058;2023-04-27T05:40:30;101517.62;;;8.71;82.63
56070;BME280;41944;52.078;-0.058;2023-04-27T05:42:57;101515.22;;;8.84;82.31
56070;BME280;41944;52.078;-0.058;2023-04-27T05:45:23;101519.84;;;8.76;82.60
56070;BME280;41944;52.078;-0.058;2023-04-27T05:47:51;101522.71;;;8.86;82.29
56070;BME280;41944;52.078;-0.058;2023-04-27T05:50:17;101525.30;;;9.06;81.23
56070;BME280;41944;52.078;-0.058;2023-04-27T05:52:45;101528.44;;;9.10;80.96
56070;BME280;41944;52.078;-0.058;2023-04-27T05:55:12;101535.35;;;8.92;81.75
56070;BME280;41944;52.078;-0.058;2023-04-27T05:57:39;101543.60;;;9.12;80.92
56070;BME280;41944;52.078;-0.058;2023-04-27T06:00:07;101545.16;;;9.18;80.75
56070;BME280;41944;52.078;-0.058;2023-04-27T06:02:35;101545.11;;;9.35;79.63
56070;BME280;41944;52.078;-0.058;2023-04-27T06:05:02;101546.70;;;9.22;79.71
56070;BME280;41944;52.078;-0.058;2023-04-27T06:07:29;101543.72;;;9.37;79.38
56070;BME280;41944;52.078;-0.058;2023-04-27T06:09:56;101545.70;;;9.21;79.52
56070;BME280;41944;52.078;-0.058;2023-04-27T06:12:23;101548.45;;;9.37;79.09
56070;BME280;41944;52.078;-0.058;2023-04-27T06:14:49;101546.32;;;9.55;77.96
56070;BME280;41944;52.078;-0.058;2023-04-27T06:17:17;101543.29;;;9.63;77.59
56070;BME280;41944;52.078;-0.058;2023-04-27T06:19:44;101546.58;;;9.76;76.09
56070;BME280;41944;52.078;-0.058;2023-04-27T06:22:11;101548.87;;;9.76;76.14
56070;BME280;41944;52.078;-0.058;2023-04-27T06:24:38;101539.33;;;9.75;76.47
56070;BME280;41944;52.078;-0.058;2023-04-27T06:27:05;101535.14;;;9.75;76.13
56070;BME280;41944;52.078;-0.058;2023-04-27T06:29:32;101531.41;;;9.87;75.83
56070;BME280;41944;52.078;-0.058;2023-04-27T06:32:00;101531.52;;;9.96;75.20
56070;BME280;41944;52.078;-0.058;2023-04-27T06:34:27;101526.87;;;10.00;74.60
56070;BME280;41944;52.078;-0.058;2023-04-27T06:36:54;101531.04;;;10.05;74.51
56070;BME280;41944;52.078;-0.058;2023-04-27T06:39:22;101531.86;;;10.13;73.43
56070;BME280;41944;52.078;-0.058;2023-04-27T06:41:49;101536.49;;;10.19;73.02
56070;BME280;41944;52.078;-0.058;2023-04-27T06:44:16;101534.02;;;10.29;72.88
56070;BME280;41944;52.078;-0.058;2023-04-27T06:46:43;101528.82;;;10.47;71.85
56070;BME280;41944;52.078;-0.058;2023-04-27T06:49:09;101522.23;;;10.51;72.01
56070;BME280;41944;52.078;-0.058;2023-04-27T06:51:37;101520.38;;;10.56;72.08
56070;BME280;41944;52.078;-0.058;2023-04-27T06:54:04;101526.19;;;10.63;71.66
56070;BME280;41944;52.078;-0.058;2023-04-27T06:56:31;101523.36;;;10.66;71.25
56070;BME280;41944;52.078;-0.058;2023-04-27T06:58:58;101521.89;;;10.76;71.29
56070;BME280;41944;52.078;-0.058;2023-04-27T07:01:26;101522.49;;;10.89;70.15
56070;BME280;41944;52.078;-0.058;2023-04-27T07:03:53;101525.54;;;10.91;69.94
56070;BME280;41944;52.078;-0.058;2023-04-27T07:06:20;101525.63;;;10.88;69.74
56070;BME280;41944;52.078;-0.058;2023-04-27T07:08:47;101520.57;;;10.91;70.25
56070;BME280;41944;52.078;-0.058;2023-04-27T07:11:14;101521.37;;;10.83;70.43
56070;BME280;41944;52.078;-0.058;2023-04-27T07:13:42;101514.90;;;10.99;70.05
56070;BME280;41944;52.078;-0.058;2023-04-27T07:16:09;101516.72;;;11.04;69.86
56070;BME280;41944;52.078;-0.058;2023-04-27T07:18:36;101518.00;;;11.22;69.10
56070;BME280;41944;52.078;-0.058;2023-04-27T07:21:03;101514.42;;;11.15;69.10
56070;BME280;41944;52.078;-0.058;2023-04-27T07:23:30;101516.41;;;11.38;67.93
56070;BME280;41944;52.078;-0.058;2023-04-27T07:25:58;101519.64;;;11.50;67.51
56070;BME280;41944;52.078;-0.058;2023-04-27T07:28:27;101521.61;;;11.63;66.57
56070;BME280;41944;52.078;-0.058;2023-04-27T07:30:54;101521.97;;;11.53;67.12
56070;BME280;41944;52.078;-0.058;2023-04-27T07:33:21;101521.28;;;11.64;66.38
56070;BME280;41944;52.078;-0.058;2023-04-27T07:35:48;101518.90;;;11.83;65.22
56070;BME280;41944;52.078;-0.058;2023-04-27T07:38:15;101516.82;;;11.83;65.17
56070;BME280;41944;52.078;-0.058;2023-04-27T07:40:42;101518.17;;;11.97;64.66
56070;BME280;41944;52.078;-0.058;2023-04-27T07:43:09;101517.35;;;12.03;63.94
56070;BME280;41944;52.078;-0.058;2023-04-27T07:45:36;101513.44;;;12.10;63.44
56070;BME280;41944;52.078;-0.058;2023-04-27T07:48:04;101505.97;;;12.25;62.22
56070;BME280;41944;52.078;-0.058;2023-04-27T07:50:31;101511.12;;;12.24;61.16
56070;BME280;41944;52.078;-0.058;2023-04-27T07:52:59;101512.95;;;12.34;61.61
56070;BME280;41944;52.078;-0.058;2023-04-27T07:55:26;101513.87;;;12.47;61.31
56070;BME280;41944;52.078;-0.058;2023-04-27T07:57:54;101514.96;;;12.54;61.31
56070;BME280;41944;52.078;-0.058;2023-04-27T08:00:22;101513.65;;;12.64;60.21
56070;BME280;41944;52.078;-0.058;2023-04-27T08:02:49;101507.53;;;12.79;59.96
56070;BME280;41944;52.078;-0.058;2023-04-27T08:05:17;101504.26;;;12.81;59.34
56070;BME280;41944;52.078;-0.058;2023-04-27T08:07:44;101496.40;;;13.00;58.35
56070;BME280;41944;52.078;-0.058;2023-04-27T08:10:12;101500.00;;;13.13;56.09
56070;BME280;41944;52.078;-0.058;2023-04-27T08:12:38;101499.58;;;13.14;56.13
56070;BME280;41944;52.078;-0.058;2023-04-27T08:15:06;101499.90;;;13.28;55.17
56070;BME280;41944;52.078;-0.058;2023-04-27T08:17:34;101504.51;;;13.37;54.34
56070;BME280;41944;52.078;-0.058;2023-04-27T08:20:00;101502.92;;;13.34;54.08
56070;BME280;41944;52.078;-0.058;2023-04-27T08:22:27;101506.88;;;13.40;53.62
56070;BME280;41944;52.078;-0.058;2023-04-27T08:24:54;101506.00;;;13.46;53.68
56070;BME280;41944;52.078;-0.058;2023-04-27T08:27:21;101505.42;;;13.52;53.18
56070;BME280;41944;52.078;-0.058;2023-04-27T08:29:48;101505.98;;;13.64;53.50
56070;BME280;41944;52.078;-0.058;2023-04-27T08:32:16;101503.12;;;13.69;52.73
56070;BME280;41944;52.078;-0.058;2023-04-27T08:34:42;101507.27;;;13.87;51.99
56070;BME280;41944;52.078;-0.058;2023-04-27T08:37:09;101505.66;;;14.03;52.15
56070;BME280;41944;52.078;-0.058;2023-04-27T08:39:36;101506.48;;;14.12;50.52
56070;BME280;41944;52.078;-0.058;2023-04-27T08:42:10;101502.02;;;14.18;50.76
56070;BME280;41944;52.078;-0.058;2023-04-27T08:44:37;101506.01;;;14.22;50.93
56070;BME280;41944;52.078;-0.058;2023-04-27T08:47:04;101506.91;;;14.17;51.52
56070;BME280;41944;52.078;-0.058;2023-04-27T08:49:31;101508.10;;;14.16;50.98
56070;BME280;41944;52.078;-0.058;2023-04-27T08:51:58;101502.63;;;14.26;49.94
56070;BME280;41944;52.078;-0.058;2023-04-27T08:54:25;101496.87;;;14.31;50.87
56070;BME280;41944;52.078;-0.058;2023-04-27T08:56:52;101497.16;;;14.44;50.38
56070;BME280;41944;52.078;-0.058;2023-04-27T08:59:19;101490.64;;;14.46;49.46
56070;BME280;41944;52.078;-0.058;2023-04-27T09:01:48;101487.92;;;14.58;49.92
56070;BME280;41944;52.078;-0.058;2023-04-27T09:04:16;101492.48;;;14.85;50.21
56070;BME280;41944;52.078;-0.058;2023-04-27T09:06:43;101487.84;;;14.96;48.59
56070;BME280;41944;52.078;-0.058;2023-04-27T09:09:09;101484.27;;;14.99;49.04
56070;BME280;41944;52.078;-0.058;2023-04-27T09:11:47;101485.42;;;15.15;48.48
56070;BME280;41944;52.078;-0.058;2023-04-27T09:14:16;101480.73;;;15.16;49.16
56070;BME280;41944;52.078;-0.058;2023-04-27T09:16:44;101478.86;;;15.24;48.70
56070;BME280;41944;52.078;-0.058;2023-04-27T09:19:22;101481.32;;;15.36;49.24
56070;BME280;41944;52.078;-0.058;2023-04-27T09:21:49;101481.82;;;15.33;47.15
56070;BME280;41944;52.078;-0.058;2023-04-27T09:24:17;101477.46;;;15.25;46.90
56070;BME280;41944;52.078;-0.058;2023-04-27T09:26:48;101464.27;;;15.35;47.08
56070;BME280;41944;52.078;-0.058;2023-04-27T09:29:15;101459.70;;;15.22;46.99
56070;BME280;41944;52.078;-0.058;2023-04-27T09:31:42;101452.09;;;15.35;46.76
56070;BME280;41944;52.078;-0.058;2023-04-27T09:34:10;101443.78;;;15.40;46.40
56070;BME280;41944;52.078;-0.058;2023-04-27T09:36:37;101446.42;;;15.56;45.96
56070;BME280;41944;52.078;-0.058;2023-04-27T09:39:06;101444.29;;;15.60;46.58
56070;BME280;41944;52.078;-0.058;2023-04-27T09:41:33;101436.05;;;15.66;46.07
56070;BME280;41944;52.078;-0.058;2023-04-27T09:44:01;101435.16;;;15.60;46.74
56070;BME280;41944;52.078;-0.058;2023-04-27T09:46:32;101433.14;;;15.72;46.68
56070;BME280;41944;52.078;-0.058;2023-04-27T09:49:02;101438.07;;;15.78;46.78
56070;BME280;41944;52.078;-0.058;2023-04-27T09:51:30;101435.43;;;15.67;46.54
56070;BME280;41944;52.078;-0.058;2023-04-27T09:53:59;101431.71;;;15.63;45.79
56070;BME280;41944;52.078;-0.058;2023-04-27T09:56:38;101438.81;;;15.58;46.35
56070;BME280;41944;52.078;-0.058;2023-04-27T09:59:19;101429.62;;;15.44;45.33
56070;BME280;41944;52.078;-0.058;2023-04-27T10:01:55;101424.09;;;15.33;46.36
56070;BME280;41944;52.078;-0.058;2023-04-27T10:04:36;101419.24;;;15.55;47.18
56070;BME280;41944;52.078;-0.058;2023-04-27T10:07:10;101424.90;;;15.70;46.54
56070;BME280;41944;52.078;-0.058;2023-04-27T10:09:40;101429.96;;;15.78;46.50
56070;BME280;41944;52.078;-0.058;2023-04-27T10:12:17;101428.92;;;15.88;46.20
56070;BME280;41944;52.078;-0.058;2023-04-27T10:14:49;101438.74;;;15.80;45.72
56070;BME280;41944;52.078;-0.058;2023-04-27T10:17:17;101433.96;;;15.84;46.28
56070;BME280;41944;52.078;-0.058;2023-04-27T10:19:53;101427.08;;;15.60;46.11
56070;BME280;41944;52.078;-0.058;2023-04-27T10:22:21;101417.48;;;15.49;46.46
56070;BME280;41944;52.078;-0.058;2023-04-27T10:24:49;101409.90;;;15.48;46.62
56070;BME280;41944;52.078;-0.058;2023-04-27T10:27:18;101404.99;;;15.47;46.68
56070;BME280;41944;52.078;-0.058;2023-04-27T10:29:46;101397.65;;;15.31;46.49
56070;BME280;41944;52.078;-0.058;2023-04-27T10:32:18;101391.57;;;15.31;47.44
56070;BME280;41944;52.078;-0.058;2023-04-27T10:34:46;101390.38;;;15.56;47.59
56070;BME280;41944;52.078;-0.058;2023-04-27T10:37:14;101390.14;;;15.62;47.16
56070;BME280;41944;52.078;-0.058;2023-04-27T10:39:43;101399.27;;;15.69;46.69
56070;BME280;41944;52.078;-0.058;2023-04-27T10:42:10;101396.17;;;15.73;46.14
56070;BME280;41944;52.078;-0.058;2023-04-27T10:44:38;101400.10;;;15.85;46.43
56070;BME280;41944;52.078;-0.058;2023-04-27T10:47:14;101398.54;;;15.88;46.64
56070;BME280;41944;52.078;-0.058;2023-04-27T10:49:42;101399.64;;;15.93;46.94
56070;BME280;41944;52.078;-0.058;2023-04-27T10:52:09;101396.65;;;16.01;46.76
56070;BME280;41944;52.078;-0.058;2023-04-27T10:54:36;101396.57;;;15.93;45.57
56070;BME280;41944;52.078;-0.058;2023-04-27T10:57:05;101392.34;;;15.89;46.49
56070;BME280;41944;52.078;-0.058;2023-04-27T10:59:33;101382.97;;;15.98;46.56
56070;BME280;41944;52.078;-0.058;2023-04-27T11:02:01;101376.90;;;16.12;45.97
56070;BME280;41944;52.078;-0.058;2023-04-27T11:04:37;101375.97;;;15.90;46.28
56070;BME280;41944;52.078;-0.058;2023-04-27T11:07:04;101373.04;;;15.90;46.49
56070;BME280;41944;52.078;-0.058;2023-04-27T11:09:31;101364.55;;;15.94;46.11
56070;BME280;41944;52.078;-0.058;2023-04-27T11:11:58;101358.50;;;15.90;45.63
56070;BME280;41944;52.078;-0.058;2023-04-27T11:14:25;101352.09;;;15.91;46.04
56070;BME280;41944;52.078;-0.058;2023-04-27T11:16:53;101345.45;;;15.99;44.96
56070;BME280;41944;52.078;-0.058;2023-04-27T11:19:20;101332.21;;;15.86;45.72
56070;BME280;41944;52.078;-0.058;2023-04-27T11:21:47;101323.46;;;15.81;45.64
56070;BME280;41944;52.078;-0.058;2023-04-27T11:24:14;101335.77;;;15.81;45.29
56070;BME280;41944;52.078;-0.058;2023-04-27T11:26:42;101336.78;;;15.80;44.68
56070;BME280;41944;52.078;-0.058;2023-04-27T11:29:10;101336.78;;;15.75;44.78
56070;BME280;41944;52.078;-0.058;2023-04-27T11:31:39;101331.62;;;15.72;44.87
56070;BME280;41944;52.078;-0.058;2023-04-27T11:34:07;101327.92;;;15.81;45.46
56070;BME280;41944;52.078;-0.058;2023-04-27T11:36:34;101317.52;;;15.84;44.76
56070;BME280;41944;52.078;-0.058;2023-04-27T11:39:01;101314.73;;;15.86;44.48
56070;BME280;41944;52.078;-0.058;2023-04-27T11:41:35;101302.79;;;16.00;44.81
56070;BME280;41944;52.078;-0.058;2023-04-27T11:44:04;101292.68;;;16.03;44.74
56070;BME280;41944;52.078;-0.058;2023-04-27T11:46:31;101280.88;;;16.13;43.03
56070;BME280;41944;52.078;-0.058;2023-04-27T11:49:00;101274.25;;;16.01;43.95
56070;BME280;41944;52.078;-0.058;2023-04-27T11:51:29;101280.53;;;15.97;42.57
56070;BME280;41944;52.078;-0.058;2023-04-27T11:54:01;101289.01;;;16.03;42.46
56070;BME280;41944;52.078;-0.058;2023-04-27T11:56:33;101291.69;;;15.86;41.78
56070;BME280;41944;52.078;-0.058;2023-04-27T11:59:01;101290.71;;;16.10;42.29
56070;BME280;41944;52.078;-0.058;2023-04-27T12:01:30;101290.74;;;16.04;42.81
56070;BME280;41944;52.078;-0.058;2023-04-27T12:03:57;101280.98;;;16.11;41.49
56070;BME280;41944;52.078;-0.058;2023-04-27T12:06:25;101282.75;;;16.29;42.18
56070;BME280;41944;52.078;-0.058;2023-04-27T12:08:52;101274.13;;;16.29;41.18
56070;BME280;41944;52.078;-0.058;2023-04-27T12:11:18;101274.91;;;16.22;40.66
56070;BME280;41944;52.078;-0.058;2023-04-27T12:13:45;101285.36;;;16.09;41.32
56070;BME280;41944;52.078;-0.058;2023-04-27T12:16:12;101282.00;;;16.08;40.73
56070;BME280;41944;52.078;-0.058;2023-04-27T12:18:39;101277.87;;;15.63;40.75
56070;BME280;41944;52.078;-0.058;2023-04-27T12:21:06;101272.29;;;15.63;41.10
56070;BME280;41944;52.078;-0.058;2023-04-27T12:23:33;101274.79;;;15.57;41.92
56070;BME280;41944;52.078;-0.058;2023-04-27T12:26:00;101264.80;;;15.52;42.54
56070;BME280;41944;52.078;-0.058;2023-04-27T12:28:27;101265.18;;;15.50;42.59
56070;BME280;41944;52.078;-0.058;2023-04-27T12:30:55;101266.73;;;15.58;42.64
56070;BME280;41944;52.078;-0.058;2023-04-27T12:33:22;101261.96;;;15.73;43.29
56070;BME280;41944;52.078;-0.058;2023-04-27T12:35:49;101267.59;;;15.73;42.59
56070;BME280;41944;52.078;-0.058;2023-04-27T12:38:16;101257.66;;;15.66;42.53
56070;BME280;41944;52.078;-0.058;2023-04-27T12:40:43;101256.71;;;15.59;43.21
56070;BME280;41944;52.078;-0.058;2023-04-27T12:43:10;101251.25;;;15.55;43.27
56070;BME280;41944;52.078;-0.058;2023-04-27T12:45:38;101250.41;;;15.60;43.61
56070;BME280;41944;52.078;-0.058;2023-04-27T12:48:05;101249.24;;;15.64;43.76